KAPN/APN METAR and TAF weather

Enter ICAO airport designator
Station Type Date Time Source
KAPN METAR 2021/07/29 17:30 UTC NOAA

KAPN 291730Z 35009KT 10SM SCT026 OVC031 23/18 A2984 RMK AO2 T02330183


Station Type Date Time Source
KAPN Decoded METAR 2021/07/29 17:30 UTC NOAA

ALPENA COUNTY REGIONAL AIRPORT, MI, United States (KAPN) 45-05N 083-34W 210M
Jul 29, 2021 - 01:30 PM EDT / 2021.07.29 1730 UTC
Wind: from the N (350 degrees) at 10 MPH (9 KT):0
Visibility: 10 mile(s):0
Sky conditions: overcast
Temperature: 73.9 F (23.3 C)
Dew Point: 64.9 F (18.3 C)
Relative Humidity: 73%
Pressure (altimeter): 29.84 in. Hg (1010 hPa)
ob: KAPN 291730Z 35009KT 10SM SCT026 OVC031 23/18 A2984 RMK AO2 T02330183
cycle: 17

Station Type Date Time Source
KAPN TAF 2021/07/29 18:39 UTC NOAA

TAF KAPN 291737Z 2918/3018 33011G20KT P6SM SCT023 BKN030
FM292100 33011G21KT P6SM SCT035
FM300300 33009KT P6SM SCT090
FM300500 36008KT P6SM SCT250
FM301600 34010G18KT P6SM FEW050

Example: see airport list